Time;durP1;ratioP1;P1;durP2;ratioP2;P2;SDS_P1;SDS_P2;PMS_P1;PMS_P2;Temp;Humidity;BMP_temperature;BMP_pressure;BME280_temperature;BME280_humidity;BME280_pressure;Samples;Min_cycle;Max_cycle;Signal;HPM_P1;HPM_P2
2021/09/26 05:42:30;;;;;;;6.90;5.97;;;;;;;20.86;58.24;101377.09;4757320;30;20479;-80
2021/09/26 06:34:04;;;;;;;7.07;4.20;;;;;;;21.14;58.18;101400.19;5326933;24;20097;-79
2021/09/26 06:36:59;;;;;;;5.78;4.53;;;;;;;21.17;58.29;101395.78;4811747;29;20070;-78
2021/09/26 07:05:35;;;;;;;7.07;5.28;;;;;;;21.28;58.62;101411.31;5816261;24;20077;31
2021/09/26 07:11:56;;;;;;;7.57;5.22;;;;;;;21.24;58.50;101416.63;5509440;24;20074;-81
2021/09/26 07:17:44;;;;;;;8.43;5.70;;;;;;;21.24;58.80;101421.88;4791287;30;20046;-81
2021/09/26 07:22:44;;;;;;;7.00;5.63;;;;;;;21.18;58.89;101430.66;5031420;24;20050;-81
2021/09/26 07:25:10;;;;;;;8.27;4.68;;;;;;;21.28;58.60;101432.25;4742110;30;20067;-78
2021/09/26 07:27:37;;;;;;;7.47;4.57;;;;;;;21.30;58.55;101435.72;4757340;30;20031;-81
2021/09/26 07:30:55;;;;;;;6.97;5.50;;;;;;;21.28;58.85;101426.16;4772096;30;20539;-81
2021/09/26 08:08:52;;;;;;;13.45;6.50;;;;;;;22.39;55.79;101425.13;4022107;28;20084;-80
2021/09/26 08:11:18;;;;;;;13.00;6.75;;;;;;;22.75;54.76;101420.81;4735246;30;20047;-80
2021/09/26 08:13:47;;;;;;;11.15;6.20;;;;;;;22.93;54.56;101424.81;4767256;30;20081;-81
2021/09/26 08:16:22;;;;;;;16.52;6.25;;;;;;;22.94;54.74;101431.78;4737447;30;20068;-81
2021/09/26 08:18:56;;;;;;;13.07;6.80;;;;;;;23.03;54.61;101435.13;4750652;30;20092;-80
2021/09/26 08:21:30;;;;;;;12.05;6.85;;;;;;;22.83;55.13;101446.06;4765508;30;20058;-81
2021/09/26 08:24:01;;;;;;;12.52;6.18;;;;;;;22.83;54.99;101453.94;4753202;30;20055;-81
2021/09/26 08:26:30;;;;;;;;;;;;;;;22.70;55.45;101455.94;4752782;30;20088;-80
2021/09/26 08:29:04;;;;;;;14.48;6.10;;;;;;;22.84;54.86;101464.38;4751242;30;19910;-81
2021/09/26 08:31:48;;;;;;;7.38;5.93;;;;;;;22.89;54.72;101470.41;4769395;30;20531;-81
2021/09/26 08:34:44;;;;;;;9.70;5.80;;;;;;;23.09;54.52;101469.97;4758804;30;20048;-82
2021/09/26 08:38:02;;;;;;;9.88;5.68;;;;;;;22.82;55.80;101471.44;4703575;30;20046;-82
2021/09/26 08:50:33;;;;;;;6.93;6.05;;;;;;;22.59;56.69;101470.13;4651868;30;20114;-80
2021/09/26 08:53:04;;;;;;;7.80;5.47;;;;;;;22.73;56.97;101466.38;4698404;30;20056;-80
2021/09/26 08:55:30;;;;;;;9.43;4.97;;;;;;;22.70;57.94;101464.69;4691329;30;20631;-78
2021/09/26 08:58:00;;;;;;;7.68;5.30;;;;;;;22.69;57.21;101455.09;4693620;30;20065;-79
2021/09/26 09:00:27;;;;;;;9.25;4.93;;;;;;;22.73;57.04;101461.13;4705342;30;20097;-79
2021/09/26 09:02:53;;;;;;;10.75;5.03;;;;;;;22.73;56.93;101466.38;4706027;30;20045;-81
2021/09/26 09:05:34;;;;;;;7.22;5.18;;;;;;;22.79;56.51;101466.25;4704378;30;20065;-77
2021/09/26 09:08:14;;;;;;;8.15;5.57;;;;;;;22.67;58.18;101459.50;4705827;30;20060;-79
2021/09/26 09:11:07;;;;;;;9.20;6.43;;;;;;;22.64;58.55;101462.16;4693673;30;20040;-80
2021/09/26 09:13:34;;;;;;;9.60;7.55;;;;;;;22.58;58.55;101472.78;4705994;30;20045;-79
2021/09/26 09:16:15;;;;;;;8.25;7.18;;;;;;;22.58;58.13;101470.16;4727473;30;20045;-80
2021/09/26 09:19:04;;;;;;;10.15;7.40;;;;;;;22.66;57.53;101481.38;4742394;30;20114;-80
2021/09/26 09:21:34;;;;;;;9.38;8.23;;;;;;;22.63;57.97;101477.97;4740959;30;20079;-80
2021/09/26 09:24:24;;;;;;;10.25;8.60;;;;;;;22.52;57.66;101481.66;4740490;30;20025;-80
2021/09/26 09:26:51;;;;;;;13.05;10.15;;;;;;;22.44;57.52;101485.34;4724926;30;20048;-79
2021/09/26 09:29:19;;;;;;;11.88;10.63;;;;;;;22.41;57.53;101481.03;4740804;30;20040;-80
2021/09/26 09:32:15;;;;;;;14.18;11.75;;;;;;;22.30;57.16;101489.09;4711539;30;20037;-80
2021/09/26 09:34:41;;;;;;;13.68;12.27;;;;;;;22.30;57.26;101488.22;4725478;30;20040;-80
2021/09/26 09:37:15;;;;;;;14.98;12.48;;;;;;;22.35;57.42;101487.22;4710086;30;20041;-80
2021/09/26 09:40:01;;;;;;;15.38;12.63;;;;;;;22.43;57.00;101488.84;4725616;30;20033;-80
2021/09/26 09:42:35;;;;;;;16.00;12.25;;;;;;;22.50;56.92;101480.81;4741599;30;20389;-80
2021/09/26 09:45:32;;;;;;;13.52;11.90;;;;;;;22.54;56.79;101484.25;4730275;30;20081;-80
2021/09/26 09:51:20;;;;;;;16.38;13.13;;;;;;;20.64;79.16;101494.16;4747327;30;20064;-80
2021/09/26 11:13:35;;;;;;;12.10;10.40;;;;;;;19.44;81.73;101503.06;4792256;24;20052;-80
2021/09/26 11:16:45;;;;;;;14.07;11.40;;;;;;;19.39;82.46;101509.22;4759587;30;20047;-80
2021/09/26 11:19:31;;;;;;;10.90;9.80;;;;;;;19.26;82.00;101508.41;4776809;30;20092;-80
2021/09/26 11:22:16;;;;;;;14.93;10.75;;;;;;;19.23;82.12;101505.84;4746151;30;20024;-80
2021/09/26 11:24:56;;;;;;;11.45;10.25;;;;;;;19.15;81.57;101507.63;4745414;30;20020;-80
2021/09/26 11:27:31;;;;;;;12.32;10.25;;;;;;;19.09;81.85;101505.88;4750100;30;20460;-81
2021/09/26 11:30:06;;;;;;;10.45;9.18;;;;;;;19.10;81.96;101510.25;4751295;30;20038;-79
2021/09/26 11:32:34;;;;;;;12.18;10.32;;;;;;;19.01;81.51;101513.78;4750487;30;20036;-82
2021/09/26 11:35:27;;;;;;;14.27;11.02;;;;;;;18.99;80.55;101514.63;4754676;30;20032;-80
2021/09/26 11:37:59;;;;;;;;;;;;;;;19.05;82.16;101518.09;4712997;30;20353;-80
2021/09/26 11:40:45;;;;;;;10.85;9.73;;;;;;;18.99;81.77;101515.50;4710253;30;20002;-80
2021/09/26 11:43:25;;;;;;;11.70;9.35;;;;;;;18.93;80.51;101519.91;4714096;30;20045;-80
2021/09/26 11:46:19;;;;;;;12.07;9.63;;;;;;;18.97;81.25;101517.25;4714804;30;20018;-80
2021/09/26 11:49:07;;;;;;;12.95;10.20;;;;;;;18.91;80.80;101520.75;4715489;30;20045;-80
2021/09/26 11:51:54;;;;;;;15.20;9.95;;;;;;;18.98;81.56;101507.69;4694007;30;20045;-79
2021/09/26 11:54:43;;;;;;;16.15;10.52;;;;;;;18.95;80.49;101505.09;4679657;30;20049;-79
2021/09/26 12:05:41;;;;;;;15.82;10.30;;;;;;;19.05;81.17;101501.56;4814669;24;20065;-78
2021/09/26 12:08:07;;;;;;;18.92;10.25;;;;;;;19.30;80.60;101491.88;4802091;29;20035;-78
2021/09/26 12:10:34;;;;;;;14.60;11.63;;;;;;;19.32;81.50;101488.38;4771922;30;20038;-79
2021/09/26 12:13:11;;;;;;;13.52;10.90;;;;;;;19.36;80.89;101484.00;4792296;30;20099;-79
2021/09/26 12:16:11;;;;;;;16.67;10.93;;;;;;;19.43;81.04;101482.22;4790212;30;20068;-81
2021/09/26 12:19:14;;;;;;;13.90;10.55;;;;;;;19.29;79.68;101496.22;4734224;30;20422;-81
2021/09/26 12:21:48;;;;;;;12.02;10.05;;;;;;;19.11;78.32;101484.13;4749089;30;20045;-81
2021/09/26 12:24:38;;;;;;;14.90;11.10;;;;;;;19.02;77.57;101484.19;4744130;30;20040;-81
2021/09/26 12:27:43;;;;;;;13.15;10.10;;;;;;;18.98;77.85;101492.03;4738234;30;20033;-80
2021/09/26 12:30:46;;;;;;;14.20;10.40;;;;;;;18.98;76.04;101484.22;4752490;30;20056;-81
2021/09/26 12:33:54;;;;;;;15.15;10.27;;;;;;;19.04;75.20;101484.19;4736748;30;20017;-81
2021/09/26 12:37:15;;;;;;;14.48;10.98;;;;;;;19.11;74.51;101485.88;4719639;30;20033;-81
2021/09/26 12:44:08;;;;;;;13.35;10.57;;;;;;;19.27;73.86;101494.47;4647327;31;20050;-82
2021/09/26 12:50:14;;;;;;;12.10;9.63;;;;;;;19.46;74.10;101490.88;4650806;31;20114;-81
2021/09/26 12:53:36;;;;;;;12.85;10.80;;;;;;;19.47;72.48;101484.78;4672274;30;20046;-82
2021/09/26 14:08:54;;;;;;;16.02;12.45;;;;;;;20.41;64.89;101511.88;5175517;24;20587;-80
2021/09/26 14:11:20;;;;;;;14.98;11.35;;;;;;;20.47;66.07;101504.81;4760493;30;20067;-81
2021/09/26 14:13:46;;;;;;;11.38;9.60;;;;;;;20.39;64.62;101514.47;4746915;30;20066;-81
2021/09/26 14:16:12;;;;;;;13.02;9.05;;;;;;;20.43;65.44;101515.34;4776867;30;20061;-80
2021/09/26 14:18:38;;;;;;;10.88;9.23;;;;;;;20.49;66.00;101507.38;4760509;30;20050;-80
2021/09/26 14:21:06;;;;;;;9.70;8.70;;;;;;;20.51;66.13;101503.91;4761440;30;20498;-80
2021/09/26 14:23:33;;;;;;;10.73;8.75;;;;;;;20.52;65.84;101499.53;4762490;30;20043;-80
2021/09/26 14:26:00;;;;;;;8.88;7.97;;;;;;;20.33;64.88;101504.94;4794908;30;20031;-79
2021/09/26 14:28:28;;;;;;;8.65;7.40;;;;;;;20.47;65.88;101498.69;4780526;29;20023;-80
2021/09/26 14:30:53;;;;;;;8.27;7.35;;;;;;;20.40;64.88;101500.53;4810689;29;20031;-80
2021/09/26 14:33:20;;;;;;;10.93;7.55;;;;;;;20.41;65.20;101506.63;4768624;30;20035;-79
2021/09/26 14:35:45;;;;;;;8.65;7.55;;;;;;;20.44;65.63;101502.22;4769898;29;20023;-81
2021/09/26 14:38:13;;;;;;;8.05;7.22;;;;;;;20.43;65.17;101497.88;4792972;30;20083;-80
2021/09/26 14:40:38;;;;;;;7.80;7.00;;;;;;;20.42;64.88;101492.66;4787519;30;20034;-80
2021/09/26 14:43:05;;;;;;;9.32;7.65;;;;;;;20.46;65.70;101496.97;4794529;29;20023;-79
2021/09/26 14:45:32;;;;;;;9.75;7.53;;;;;;;20.46;65.87;101497.84;4795702;30;20403;-78
2021/09/26 14:47:58;;;;;;;9.50;7.63;;;;;;;20.46;65.25;101497.84;4764773;30;20027;-79
2021/09/26 14:50:24;;;;;;;8.48;7.20;;;;;;;20.43;64.72;101497.88;4780344;30;20058;-79
2021/09/26 14:52:50;;;;;;;8.50;7.70;;;;;;;20.43;64.96;101497.88;4779589;30;20514;-79
2021/09/26 14:55:20;;;;;;;9.90;7.90;;;;;;;20.56;65.75;101498.63;4765758;30;20043;-79
2021/09/26 14:57:46;;;;;;;8.07;6.68;;;;;;;20.51;64.88;101492.56;4779966;30;20035;-79
2021/09/26 15:00:18;;;;;;;9.07;7.65;;;;;;;20.61;65.55;101485.53;4795141;30;20402;-80
2021/09/26 15:02:44;;;;;;;9.07;8.18;;;;;;;20.85;66.99;101479.13;4797446;30;20037;-80
2021/09/26 15:05:11;;;;;;;8.95;8.05;;;;;;;20.73;65.99;101480.13;4786572;30;20041;-81
2021/09/26 15:07:42;;;;;;;9.68;7.45;;;;;;;20.72;66.55;101481.88;4787088;30;20031;-81
2021/09/26 15:10:15;;;;;;;7.90;7.10;;;;;;;20.68;65.65;101493.25;4782538;30;20060;-81
2021/09/26 15:12:57;;;;;;;8.13;7.03;;;;;;;20.63;66.17;101487.22;4785230;30;20548;-80
2021/09/26 15:15:24;;;;;;;7.68;6.68;;;;;;;20.64;65.82;101488.09;4769269;30;20034;-80
2021/09/26 15:17:51;;;;;;;8.20;6.78;;;;;;;20.69;65.85;101494.16;4781907;30;20032;-80
2021/09/26 15:20:21;;;;;;;7.97;7.18;;;;;;;20.68;65.74;101498.50;4782701;30;20031;-82
2021/09/26 15:22:46;;;;;;;8.50;7.63;;;;;;;20.72;66.52;101501.94;4780476;30;20036;-80
2021/09/26 15:25:15;;;;;;;7.85;7.00;;;;;;;20.72;66.30;101500.19;4780293;30;20028;-80
2021/09/26 15:27:41;;;;;;;8.27;7.18;;;;;;;20.74;66.63;101500.19;4778317;30;20019;-80
2021/09/26 15:30:09;;;;;;;7.80;7.03;;;;;;;20.68;66.08;101498.50;4777725;30;20560;-80
2021/09/26 15:32:37;;;;;;;7.95;7.15;;;;;;;20.72;66.38;101494.09;4763154;30;20391;-80
2021/09/26 15:35:04;;;;;;;8.55;7.75;;;;;;;20.70;65.88;101496.72;4780509;30;20373;-80
2021/09/26 15:37:33;;;;;;;8.43;7.53;;;;;;;20.68;66.20;101485.41;4764037;30;20043;-80
2021/09/26 15:39:59;;;;;;;8.25;7.45;;;;;;;20.72;66.52;101489.72;4750409;30;20038;-80
2021/09/26 15:42:24;;;;;;;8.00;7.30;;;;;;;20.76;66.57;101480.09;4781465;30;20056;-80
2021/09/26 15:44:52;;;;;;;10.45;8.35;;;;;;;20.74;66.56;101485.34;4767236;30;20484;-81
2021/09/26 15:47:19;;;;;;;8.82;7.93;;;;;;;20.74;66.76;101487.09;4767537;30;20484;-81
2021/09/26 15:49:45;;;;;;;8.65;7.75;;;;;;;20.71;66.09;101484.53;4767212;30;20104;-82
2021/09/26 15:52:12;;;;;;;9.20;8.30;;;;;;;20.73;66.42;101481.00;4783591;30;20047;-80
2021/09/26 15:54:37;;;;;;;9.27;7.65;;;;;;;20.70;66.13;101486.25;4780470;30;20036;-82
2021/09/26 15:57:09;;;;;;;8.85;7.95;;;;;;;20.74;66.20;101490.56;4765470;30;20362;-80
2021/09/26 15:59:35;;;;;;;8.82;7.82;;;;;;;20.72;66.07;101491.47;4763413;30;20040;-80
2021/09/26 16:02:04;;;;;;;9.85;8.15;;;;;;;20.77;66.26;101496.66;4751595;30;20046;-81
2021/09/26 16:04:29;;;;;;;15.32;7.68;;;;;;;20.77;66.49;101480.97;4748309;30;20502;-81
2021/09/26 16:06:55;;;;;;;9.13;8.23;;;;;;;20.79;67.19;101485.28;4765159;30;20036;-81
2021/09/26 16:09:22;;;;;;;9.85;8.85;;;;;;;20.80;67.32;101478.31;4778019;30;20058;-82
2021/09/26 16:11:47;;;;;;;8.82;8.02;;;;;;;20.75;66.73;101476.63;4782072;30;20486;-81
2021/09/26 16:14:32;;;;;;;8.88;8.00;;;;;;;20.75;67.00;101474.00;4784788;30;20099;-80
2021/09/26 16:17:27;;;;;;;9.30;8.40;;;;;;;20.72;67.04;101476.66;4801588;30;20095;-80
2021/09/26 16:20:24;;;;;;;;;;;;;;;20.79;67.05;101474.81;4785253;30;20060;-82
2021/09/26 16:24:08;;;;;;;9.05;8.18;;;;;;;20.72;66.77;101467.94;4755942;30;19914;-82
2021/09/26 16:30:41;;;;;;;11.98;8.27;;;;;;;20.75;66.85;101463.56;4734143;30;20105;-83
2021/09/26 16:34:16;;;;;;;9.10;8.20;;;;;;;20.73;66.70;101464.44;4676134;30;20045;-81
2021/09/26 16:37:39;;;;;;;8.98;8.18;;;;;;;20.79;66.79;101473.97;4684476;30;20055;-81
2021/09/26 16:40:08;;;;;;;9.55;8.55;;;;;;;20.79;67.01;101473.97;4678387;30;20042;-80
2021/09/26 16:42:34;;;;;;;9.25;8.30;;;;;;;20.79;67.21;101477.44;4706921;30;20160;-80
2021/09/26 16:45:00;;;;;;;9.63;8.60;;;;;;;20.80;67.21;101471.34;4690796;30;20492;-80
2021/09/26 16:47:25;;;;;;;8.73;7.82;;;;;;;20.77;66.50;101479.19;4689204;30;20041;-81
2021/09/26 16:49:51;;;;;;;8.77;7.88;;;;;;;20.72;66.43;101476.66;4688540;30;20139;-81
2021/09/26 16:52:21;;;;;;;9.23;8.18;;;;;;;20.73;66.39;101485.34;4688725;30;20041;-78
2021/09/26 16:54:47;;;;;;;9.80;8.88;;;;;;;20.72;66.53;101478.41;4728459;30;20068;-79
2021/09/26 16:57:20;;;;;;;8.90;7.82;;;;;;;20.73;66.48;101481.00;5066590;24;20278;-82
2021/09/26 16:59:46;;;;;;;9.23;8.32;;;;;;;20.81;66.92;101485.28;4779194;30;20035;-81
2021/09/26 17:02:12;;;;;;;9.85;8.85;;;;;;;20.77;67.01;101488.81;4784019;29;20030;-81
2021/09/26 17:04:38;;;;;;;12.43;8.95;;;;;;;20.79;66.92;101487.03;4910777;24;20064;-81
2021/09/26 17:07:22;;;;;;;10.93;8.95;;;;;;;20.75;66.32;101491.44;4816727;24;20060;-82
2021/09/26 17:09:48;;;;;;;10.93;9.68;;;;;;;20.78;66.45;101496.66;4788131;29;20036;-81
2021/09/26 17:12:15;;;;;;;11.95;9.65;;;;;;;20.82;66.46;101503.56;4784344;30;20514;-82
2021/09/26 17:14:56;;;;;;;11.65;9.93;;;;;;;20.85;66.61;101493.06;4786647;30;20030;-82
2021/09/26 17:18:02;;;;;;;14.45;10.50;;;;;;;20.89;66.86;101494.75;4774232;30;20036;-82
2021/09/26 17:20:47;;;;;;;12.85;11.35;;;;;;;20.91;66.96;101500.81;4748716;30;20040;-81
2021/09/26 17:26:42;;;;;;;15.25;12.25;;;;;;;20.98;67.46;101503.38;4737789;30;20044;-80
2021/09/26 17:29:15;;;;;;;14.23;12.70;;;;;;;20.92;67.45;101501.69;5110992;24;20059;-81
2021/09/26 17:32:36;;;;;;;15.50;12.80;;;;;;;20.88;67.29;101515.69;4768389;30;20035;-82
2021/09/26 17:35:39;;;;;;;17.63;12.55;;;;;;;20.89;67.37;101515.69;4780871;30;20122;-81
2021/09/26 17:38:08;;;;;;;14.77;12.25;;;;;;;20.87;66.79;101519.19;4773690;30;20549;-80
2021/09/26 17:43:59;;;;;;;15.60;11.77;;;;;;;20.86;66.75;101514.84;4724801;30;20052;-80
2021/09/26 17:46:36;;;;;;;17.90;12.00;;;;;;;20.83;66.28;101512.28;4783706;30;20562;-81
2021/09/26 17:49:03;;;;;;;13.40;11.18;;;;;;;20.82;66.69;101507.91;4766601;30;20044;-81
2021/09/26 17:51:50;;;;;;;14.25;11.57;;;;;;;20.84;66.71;101514.00;4783414;30;20100;-80
2021/09/26 17:54:40;;;;;;;13.65;10.85;;;;;;;20.80;66.85;101518.41;4789024;30;20035;-80
2021/09/26 17:57:18;;;;;;;16.52;11.50;;;;;;;20.78;66.58;101519.31;4748604;30;20047;-80
2021/09/26 17:59:44;;;;;;;13.57;10.52;;;;;;;20.73;66.38;101522.84;4725598;30;20100;-80
2021/09/26 18:02:09;;;;;;;12.32;10.18;;;;;;;20.74;66.40;101524.56;4735376;30;20032;-77
2021/09/26 18:04:35;;;;;;;14.18;9.77;;;;;;;20.74;66.20;101516.72;4734797;30;20075;-77
2021/09/26 18:07:02;;;;;;;13.40;9.52;;;;;;;20.79;66.24;101515.81;4735561;30;20049;-76
2021/09/26 18:09:28;;;;;;;12.48;9.38;;;;;;;20.78;66.23;101519.31;4737004;30;20037;-77
2021/09/26 18:11:53;;;;;;;12.70;9.82;;;;;;;20.79;66.24;101524.50;4736750;30;20102;-78
2021/09/26 18:14:19;;;;;;;11.32;9.15;;;;;;;20.80;66.19;101528.03;4735992;30;20047;-76
2021/09/26 18:16:44;;;;;;;13.30;8.93;;;;;;;20.87;66.43;101521.81;4709552;30;20074;-76
2021/09/26 18:19:10;;;;;;;13.43;8.95;;;;;;;20.85;66.25;101519.22;4724254;30;20049;-77
2021/09/26 18:21:37;;;;;;;10.65;8.55;;;;;;;20.88;66.51;101516.56;4741476;30;20055;-77
2021/09/26 18:24:08;;;;;;;12.93;8.43;;;;;;;20.89;66.43;101522.66;4726070;30;20432;-77
2021/09/26 18:26:33;;;;;;;10.88;8.48;;;;;;;20.91;66.47;101521.75;4725890;30;20100;-77
2021/09/26 18:29:01;;;;;;;12.00;8.38;;;;;;;20.89;66.41;101517.44;4723141;30;20549;-77
2021/09/26 18:31:27;;;;;;;12.77;8.82;;;;;;;20.99;66.89;101521.69;4726270;30;20032;-79
2021/09/26 18:33:56;;;;;;;16.10;8.55;;;;;;;21.01;67.17;101522.50;4725687;30;20052;-79
2021/09/26 18:36:24;;;;;;;17.38;8.57;;;;;;;21.01;66.96;101527.72;4712861;30;20037;-79
2021/09/26 18:38:51;;;;;;;18.98;9.20;;;;;;;21.01;67.35;101524.25;4739358;30;20033;-78
2021/09/26 18:41:21;;;;;;;14.48;9.23;;;;;;;21.04;67.67;101532.09;4748465;30;20178;-77
2021/09/26 18:43:47;;;;;;;16.08;9.13;;;;;;;21.05;67.77;101528.56;4744195;30;20063;-77
2021/09/26 18:46:15;;;;;;;14.35;8.70;;;;;;;21.07;68.08;101522.41;4730202;30;20053;-77
2021/09/26 18:48:40;;;;;;;11.85;8.85;;;;;;;21.01;68.08;101530.34;4760675;30;20058;-78
2021/09/26 18:51:09;;;;;;;12.27;8.85;;;;;;;21.00;68.23;101535.63;4743089;30;20094;-78
2021/09/26 18:53:35;;;;;;;12.55;8.85;;;;;;;20.94;67.90;101540.03;4742498;30;20081;-77
2021/09/26 18:56:03;;;;;;;16.95;8.73;;;;;;;20.93;68.03;101546.16;4757868;30;20148;-77
2021/09/26 18:58:33;;;;;;;9.45;8.48;;;;;;;20.95;67.98;101538.28;4742329;30;20047;-77
2021/09/26 19:00:59;;;;;;;11.55;8.23;;;;;;;20.94;67.51;101528.69;4728911;30;20425;-77
2021/09/26 19:03:24;;;;;;;12.20;9.30;;;;;;;20.93;67.69;101534.84;4757468;30;20445;-77
2021/09/26 19:05:53;;;;;;;12.18;7.97;;;;;;;20.98;67.92;101540.88;4742780;30;20051;-77
2021/09/26 19:08:20;;;;;;;9.15;8.25;;;;;;;20.96;67.91;101547.88;4743113;30;20028;-77
2021/09/26 19:10:46;;;;;;;14.05;8.38;;;;;;;20.94;67.87;101544.41;4758739;30;20063;-77
2021/09/26 19:13:18;;;;;;;13.15;8.10;;;;;;;20.96;67.80;101555.72;4741474;30;20056;-76
2021/09/26 19:15:47;;;;;;;9.40;8.07;;;;;;;20.94;67.95;101554.88;4741626;30;20082;-77
2021/09/26 19:18:13;;;;;;;10.70;8.30;;;;;;;20.94;67.61;101553.09;4741016;30;20024;-76
2021/09/26 19:20:39;;;;;;;10.52;8.30;;;;;;;20.99;68.01;101552.19;4742029;30;20036;-77
2021/09/26 19:23:06;;;;;;;10.35;8.43;;;;;;;20.98;67.90;101550.47;4742067;30;20031;-77
2021/09/26 19:25:32;;;;;;;11.00;8.00;;;;;;;20.96;67.80;101553.94;4743544;30;20039;-77
2021/09/26 19:27:58;;;;;;;11.07;7.95;;;;;;;20.96;67.71;101555.72;4743349;30;20028;-77
2021/09/26 19:30:26;;;;;;;8.07;7.28;;;;;;;20.98;67.79;101558.31;4728035;30;20060;-77
2021/09/26 19:32:52;;;;;;;10.02;7.55;;;;;;;20.96;67.46;101553.94;4743323;30;20024;-77
2021/09/26 19:35:24;;;;;;;8.52;7.63;;;;;;;21.00;67.87;101557.41;4758131;30;20480;-76
2021/09/26 19:37:49;;;;;;;9.45;7.78;;;;;;;20.99;67.70;101557.41;4757856;30;20568;-77
2021/09/26 19:40:16;;;;;;;9.18;8.23;;;;;;;20.98;67.60;101568.78;4757295;30;20063;-77
2021/09/26 19:42:43;;;;;;;9.60;7.75;;;;;;;21.01;67.69;101558.28;4741591;30;20497;-77
2021/09/26 19:45:10;;;;;;;9.70;8.07;;;;;;;21.00;67.31;101562.66;4742393;30;20070;-77
2021/09/26 19:47:39;;;;;;;9.30;8.07;;;;;;;21.00;67.46;101562.66;4740938;30;20064;-79
2021/09/26 19:50:05;;;;;;;8.60;7.38;;;;;;;21.01;67.47;101568.72;4743377;30;20036;-78
2021/09/26 19:52:31;;;;;;;8.75;7.82;;;;;;;20.99;67.66;101562.66;4749446;30;20032;-79
2021/09/26 19:54:56;;;;;;;9.07;8.15;;;;;;;21.00;67.33;101564.41;4732486;30;20071;-78
2021/09/26 19:57:22;;;;;;;8.80;7.97;;;;;;;21.00;67.56;101567.88;4758165;30;20040;-77
2021/09/26 19:59:47;;;;;;;8.40;7.53;;;;;;;21.01;67.52;101566.97;4742876;30;20043;-77
2021/09/26 20:02:12;;;;;;;9.73;7.60;;;;;;;21.00;67.51;101562.66;4728695;30;20516;-77
2021/09/26 20:04:39;;;;;;;12.10;9.00;;;;;;;21.03;67.86;101569.59;4741886;30;20115;-78
2021/09/26 20:07:05;;;;;;;13.25;9.02;;;;;;;21.04;67.74;101560.88;4742903;30;20036;-78
2021/09/26 20:09:33;;;;;;;9.45;8.48;;;;;;;21.04;67.65;101563.47;4742071;30;20033;-78
2021/09/26 20:11:58;;;;;;;10.32;8.63;;;;;;;21.04;67.95;101564.34;4747134;30;20047;-79
2021/09/26 20:14:24;;;;;;;11.93;8.77;;;;;;;21.02;67.90;101565.25;4747967;30;20036;-79
2021/09/26 20:16:50;;;;;;;10.15;8.52;;;;;;;21.03;67.85;101559.13;4743806;30;20394;-79
2021/09/26 20:19:15;;;;;;;12.27;8.30;;;;;;;21.02;67.51;101560.88;4740026;30;20040;-79
2021/09/26 20:21:43;;;;;;;12.60;8.90;;;;;;;21.03;67.81;101556.50;4744304;30;20090;-79
2021/09/26 20:24:11;;;;;;;9.90;8.75;;;;;;;21.02;67.56;101552.16;4745511;30;20028;-79
2021/09/26 20:26:37;;;;;;;11.70;8.70;;;;;;;21.02;67.56;101552.16;4743163;30;20036;-78
2021/09/26 20:29:03;;;;;;;9.80;8.80;;;;;;;21.02;67.56;101555.63;4741453;30;20056;-78
2021/09/26 20:31:31;;;;;;;10.13;8.95;;;;;;;21.03;67.58;101556.50;4743175;30;20090;-78
2021/09/26 20:33:57;;;;;;;10.40;8.13;;;;;;;21.04;67.58;101555.63;4758929;30;20028;-78
2021/09/26 20:36:24;;;;;;;10.18;9.10;;;;;;;21.03;67.43;101557.34;4759631;30;20116;-78
2021/09/26 20:38:51;;;;;;;9.55;8.63;;;;;;;21.03;67.37;101554.75;4755402;30;20032;-78
2021/09/26 20:41:18;;;;;;;9.02;7.88;;;;;;;21.03;67.50;101544.28;4755663;30;20035;-78
2021/09/26 20:43:45;;;;;;;9.57;8.35;;;;;;;21.04;67.35;101546.03;4742659;30;20041;-78
2021/09/26 20:46:10;;;;;;;8.60;7.70;;;;;;;21.05;67.30;101544.25;4743565;30;20555;-79
2021/09/26 20:48:37;;;;;;;9.10;8.20;;;;;;;21.05;67.66;101550.34;4756261;30;20118;-78
2021/09/26 20:51:08;;;;;;;9.20;7.90;;;;;;;21.04;67.28;101546.03;4756043;30;20032;-78
2021/09/26 20:53:35;;;;;;;9.80;8.57;;;;;;;21.04;67.37;101548.63;4743984;30;20036;-78
2021/09/26 20:56:01;;;;;;;11.63;8.60;;;;;;;21.04;67.30;101532.94;4741659;30;20044;-78
2021/09/26 20:58:26;;;;;;;8.52;7.70;;;;;;;21.04;67.30;101543.41;4758212;30;20039;-78
2021/09/26 21:00:52;;;;;;;9.00;7.68;;;;;;;21.05;67.21;101534.66;4742322;30;20036;-79
2021/09/26 21:03:18;;;;;;;8.75;7.80;;;;;;;21.06;67.41;101531.16;4742397;30;20036;-79
2021/09/26 21:05:44;;;;;;;8.63;7.80;;;;;;;21.06;67.16;101539.03;4744104;30;20060;-78
2021/09/26 21:08:10;;;;;;;8.75;7.30;;;;;;;21.09;67.33;101548.56;4729551;30;20032;-78
2021/09/26 21:10:40;;;;;;;9.23;7.95;;;;;;;21.06;67.24;101531.16;4751610;30;20059;-80
2021/09/26 21:13:06;;;;;;;7.90;7.10;;;;;;;21.08;67.37;101534.63;4755420;30;20031;-81
2021/09/26 21:15:56;;;;;;;9.32;7.10;;;;;;;21.07;67.12;101527.66;4755896;30;20080;-81
2021/09/26 21:18:56;;;;;;;11.23;7.10;;;;;;;21.08;67.21;101529.41;4767357;30;20076;-80
2021/09/26 21:21:22;;;;;;;12.85;7.43;;;;;;;21.08;67.22;101529.41;4704588;30;20072;-80
2021/09/26 21:23:48;;;;;;;14.55;7.28;;;;;;;21.08;66.98;101526.78;4719184;30;20053;-80
2021/09/26 21:26:21;;;;;;;9.60;7.80;;;;;;;21.06;66.89;101520.69;4719194;30;20071;-80
2021/09/26 21:28:46;;;;;;;14.97;7.70;;;;;;;21.06;66.87;101520.69;4718056;30;20064;-80
2021/09/26 21:31:12;;;;;;;10.85;7.63;;;;;;;21.09;66.85;101520.66;4688907;30;20041;-80
2021/09/26 21:33:38;;;;;;;11.32;7.40;;;;;;;21.08;66.78;101518.94;4688241;30;20050;-80
2021/09/26 21:36:05;;;;;;;8.95;7.00;;;;;;;21.09;66.87;101522.41;4702897;30;20042;-80
2021/09/26 21:38:31;;;;;;;10.90;7.60;;;;;;;21.09;66.77;101520.66;4703878;30;20187;-81
2021/09/26 21:41:03;;;;;;;16.55;7.90;;;;;;;21.10;66.88;101517.16;4689060;30;20038;-80
2021/09/26 21:43:29;;;;;;;12.98;7.22;;;;;;;21.08;66.64;101513.69;4704554;30;20046;-81
2021/09/26 21:45:57;;;;;;;12.85;7.13;;;;;;;21.09;66.67;101507.56;4690541;30;20041;-80
2021/09/26 21:48:27;;;;;;;9.48;7.10;;;;;;;21.09;66.66;101512.78;4703302;30;20026;-81
2021/09/26 21:50:52;;;;;;;10.63;7.05;;;;;;;21.09;66.61;101504.94;4703016;30;20025;-81
2021/09/26 21:53:20;;;;;;;9.98;6.80;;;;;;;21.10;66.54;101509.31;4705915;30;20064;-81
2021/09/26 21:55:45;;;;;;;8.63;7.13;;;;;;;21.11;66.33;101511.03;4707900;30;20022;-80
2021/09/26 21:58:21;;;;;;;9.50;6.80;;;;;;;21.10;66.53;101513.66;4703107;30;20054;-80
2021/09/26 22:00:52;;;;;;;9.63;6.60;;;;;;;21.10;66.40;101522.41;4701817;30;20046;-81
2021/09/26 22:03:23;;;;;;;8.88;7.20;;;;;;;21.11;66.49;101518.03;4701687;30;20054;-80
2021/09/26 22:05:49;;;;;;;9.23;6.70;;;;;;;21.11;66.29;101521.50;4746104;30;20074;-80
2021/09/26 22:08:16;;;;;;;11.40;6.60;;;;;;;21.11;66.41;101521.50;4708772;30;20135;-80
2021/09/26 22:10:43;;;;;;;12.98;6.93;;;;;;;21.11;66.12;101521.50;4754496;30;20064;-80
2021/09/26 22:13:11;;;;;;;11.63;6.90;;;;;;;21.12;66.56;101520.63;4754184;30;20032;-80
2021/09/26 22:15:38;;;;;;;8.77;6.28;;;;;;;21.12;66.25;101524.97;4755481;30;20035;-80
2021/09/26 22:18:06;;;;;;;7.75;6.68;;;;;;;21.13;66.19;101521.47;4738402;30;20047;-81
2021/09/26 22:20:37;;;;;;;10.07;6.70;;;;;;;21.12;66.50;101510.16;4752640;30;20039;-80
2021/09/26 22:23:04;;;;;;;7.95;6.60;;;;;;;21.12;66.27;101509.25;4752804;30;20048;-81
2021/09/26 22:25:38;;;;;;;9.27;6.13;;;;;;;21.12;66.20;101509.25;4739685;30;20104;-81
2021/09/26 22:28:18;;;;;;;13.43;6.13;;;;;;;21.12;66.41;101507.53;4740612;30;20113;-81
2021/09/26 22:30:48;;;;;;;6.95;6.25;;;;;;;21.12;66.46;101504.03;4766343;30;20056;-81
2021/09/26 22:33:23;;;;;;;7.47;5.78;;;;;;;21.12;66.49;101504.94;4773420;30;20044;-81
2021/09/26 22:35:52;;;;;;;7.82;6.50;;;;;;;21.11;66.26;101500.56;4758976;30;20044;-81
2021/09/26 22:38:22;;;;;;;7.50;6.30;;;;;;;21.11;66.29;101500.56;4760414;30;20016;-81
2021/09/26 22:40:50;;;;;;;8.40;6.60;;;;;;;21.12;66.18;101497.06;4776379;30;20040;-81